createdAt,value
2023-02-09T00:02:12.824Z,18.23
2023-02-09T00:04:39.451Z,19.17
2023-02-09T00:07:05.954Z,19.55
2023-02-09T00:09:32.375Z,19.92
2023-02-09T00:12:17.463Z,20.33
2023-02-09T00:14:43.894Z,19.92
2023-02-09T00:17:10.401Z,19.42
2023-02-09T00:19:36.950Z,19.70
2023-02-09T00:22:03.418Z,19.83
2023-02-09T00:24:29.862Z,19.40
2023-02-09T00:26:56.348Z,19.67
2023-02-09T00:29:24.040Z,20.20
2023-02-09T00:31:52.003Z,19.08
2023-02-09T00:34:19.107Z,20.60
2023-02-09T00:36:46.086Z,19.27
2023-02-09T00:39:12.737Z,18.80
2023-02-09T00:41:57.562Z,19.27
2023-02-09T00:44:24.112Z,19.20
2023-02-09T00:46:52.186Z,19.77
2023-02-09T00:49:18.786Z,19.38
2023-02-09T00:51:45.498Z,20.83
2023-02-09T00:54:13.140Z,18.70
2023-02-09T00:56:39.618Z,19.25
2023-02-09T00:59:06.139Z,20.90
2023-02-09T01:01:32.667Z,19.20
2023-02-09T01:03:59.216Z,19.90
2023-02-09T01:06:25.692Z,20.15
2023-02-09T01:08:52.152Z,21.15
2023-02-09T01:11:18.847Z,20.40
2023-02-09T01:13:46.326Z,19.77
2023-02-09T01:16:15.980Z,20.95
2023-02-09T01:18:43.364Z,21.17
2023-02-09T01:21:21.077Z,18.30
2023-02-09T01:23:48.350Z,20.00
2023-02-09T01:26:16.361Z,19.63
2023-02-09T01:28:43.256Z,19.63
2023-02-09T01:31:26.744Z,17.90
2023-02-09T01:33:56.085Z,20.67
2023-02-09T01:36:23.270Z,19.20
2023-02-09T01:38:50.478Z,20.20
2023-02-09T01:41:17.523Z,18.25
2023-02-09T01:43:57.420Z,19.15
2023-02-09T01:46:26.972Z,19.27
2023-02-09T01:49:03.190Z,20.73
2023-02-09T01:51:31.912Z,20.52
2023-02-09T01:53:58.459Z,18.63
2023-02-09T01:56:29.644Z,18.55
2023-02-09T01:58:56.814Z,18.38
2023-02-09T02:01:24.616Z,18.55
2023-02-09T02:03:53.426Z,17.90
2023-02-09T02:07:12.842Z,16.92
2023-02-09T02:09:39.916Z,17.23
2023-02-09T02:12:06.823Z,18.58
2023-02-09T02:14:36.091Z,18.60
2023-02-09T02:17:20.237Z,18.38
2023-02-09T02:20:08.444Z,18.92
2023-02-09T02:22:58.643Z,19.35
2023-02-09T02:26:13.838Z,20.17
2023-02-09T02:29:03.427Z,16.02
2023-02-09T02:32:03.077Z,18.38
2023-02-09T02:34:50.739Z,20.58
2023-02-09T02:38:00.194Z,18.65
2023-02-09T02:40:35.505Z,19.45
2023-02-09T02:43:13.364Z,18.23
2023-02-09T02:45:51.181Z,18.58
2023-02-09T02:48:32.544Z,18.75
2023-02-09T02:53:36.495Z,17.80
2023-02-09T02:56:24.368Z,16.67
2023-02-09T02:58:53.773Z,18.05
2023-02-09T03:01:23.620Z,18.10
2023-02-09T03:03:52.281Z,18.00
2023-02-09T03:06:18.796Z,19.13
2023-02-09T03:08:56.354Z,17.20
2023-02-09T03:11:30.460Z,17.58
2023-02-09T03:14:06.141Z,17.10
2023-02-09T03:16:42.266Z,17.13
2023-02-09T03:19:43.391Z,18.13
2023-02-09T03:22:15.702Z,16.45
2023-02-09T03:24:42.130Z,16.88
2023-02-09T03:27:18.586Z,16.73
2023-02-09T03:29:52.624Z,17.60
2023-02-09T03:32:21.028Z,17.70
2023-02-09T03:34:47.690Z,15.88
2023-02-09T03:37:14.153Z,16.50
2023-02-09T03:39:40.793Z,17.05
2023-02-09T03:42:07.415Z,16.67
2023-02-09T03:44:34.069Z,16.52
2023-02-09T03:47:03.111Z,16.70
2023-02-09T03:49:40.890Z,16.70
2023-02-09T03:52:10.231Z,17.38
2023-02-09T03:54:37.032Z,15.65
2023-02-09T03:57:04.615Z,16.70
2023-02-09T03:59:35.265Z,15.95
2023-02-09T04:02:02.450Z,17.75
2023-02-09T04:04:29.044Z,15.63
2023-02-09T04:06:56.226Z,16.50
2023-02-09T04:09:23.009Z,16.58
2023-02-09T04:11:49.820Z,16.25
2023-02-09T04:14:16.336Z,16.38
2023-02-09T04:16:42.895Z,17.92
2023-02-09T04:19:09.904Z,17.08
2023-02-09T04:21:37.954Z,16.45
2023-02-09T04:24:06.297Z,16.75
2023-02-09T04:26:33.314Z,18.27
2023-02-09T04:28:59.829Z,16.52
2023-02-09T04:31:26.781Z,16.80
2023-02-09T04:33:53.339Z,17.63
2023-02-09T04:36:21.001Z,17.30
2023-02-09T04:38:47.452Z,17.88
2023-02-09T04:41:13.931Z,19.83
2023-02-09T04:43:40.389Z,16.65
2023-02-09T04:46:12.993Z,17.90
2023-02-09T04:48:39.502Z,18.17
2023-02-09T04:51:06.601Z,16.90
2023-02-09T04:53:33.126Z,16.80
2023-02-09T04:55:59.622Z,16.15
2023-02-09T04:58:44.824Z,15.50
2023-02-09T05:01:18.269Z,16.70
2023-02-09T05:03:45.018Z,17.27
2023-02-09T05:06:11.816Z,17.42
2023-02-09T05:08:38.415Z,17.30
2023-02-09T05:11:05.081Z,16.00
2023-02-09T05:13:31.520Z,16.95
2023-02-09T05:15:58.012Z,16.55
2023-02-09T05:18:25.074Z,15.75
2023-02-09T05:20:51.724Z,15.38
2023-02-09T05:23:18.457Z,15.98
2023-02-09T05:25:45.792Z,15.98
2023-02-09T05:28:12.525Z,16.90
2023-02-09T05:30:39.323Z,17.00
2023-02-09T05:33:05.889Z,15.52
2023-02-09T05:35:32.452Z,16.35
2023-02-09T05:37:58.875Z,16.50
2023-02-09T05:40:25.508Z,16.17
2023-02-09T05:42:52.004Z,16.75
2023-02-09T05:45:18.724Z,15.45
2023-02-09T05:47:45.362Z,16.17
2023-02-09T05:50:11.867Z,14.95
2023-02-09T05:52:38.348Z,15.77
2023-02-09T05:55:05.007Z,16.30
2023-02-09T05:57:31.462Z,15.90
2023-02-09T05:59:58.094Z,16.33
2023-02-09T06:02:24.619Z,15.82
2023-02-09T06:04:51.509Z,15.57
2023-02-09T06:07:18.141Z,16.83
2023-02-09T06:09:44.697Z,14.88
2023-02-09T06:12:11.240Z,15.75
2023-02-09T06:14:37.786Z,15.98
2023-02-09T06:17:04.468Z,16.35
2023-02-09T06:19:30.902Z,17.35
2023-02-09T06:21:57.530Z,16.83
2023-02-09T06:24:24.205Z,14.52
2023-02-09T06:26:50.856Z,15.85
2023-02-09T06:29:17.389Z,15.98
2023-02-09T06:31:44.021Z,15.90
2023-02-09T06:34:10.590Z,15.90
2023-02-09T06:36:37.118Z,16.27
2023-02-09T06:39:07.714Z,15.77
2023-02-09T06:41:34.506Z,15.27
2023-02-09T06:44:01.027Z,16.27
2023-02-09T06:46:28.605Z,14.68
2023-02-09T06:48:55.547Z,17.42
2023-02-09T06:51:22.236Z,16.70
2023-02-09T06:53:49.215Z,15.75
2023-02-09T06:56:16.049Z,17.30
2023-02-09T06:58:42.548Z,15.55
2023-02-09T07:01:11.990Z,16.55
2023-02-09T07:03:38.674Z,16.02
2023-02-09T07:06:07.721Z,17.67
2023-02-09T07:08:35.082Z,16.83
2023-02-09T07:11:03.674Z,16.15
2023-02-09T07:13:31.949Z,15.90
2023-02-09T07:15:59.785Z,15.52
2023-02-09T07:18:27.199Z,16.60
2023-02-09T07:21:08.801Z,16.85
2023-02-09T07:23:35.607Z,17.30
2023-02-09T07:26:04.759Z,17.45
2023-02-09T07:28:31.858Z,18.08
2023-02-09T07:31:06.509Z,16.80
2023-02-09T07:33:34.754Z,16.20
2023-02-09T07:36:07.425Z,17.33
2023-02-09T07:38:34.912Z,18.58
2023-02-09T07:41:03.176Z,17.00
2023-02-09T07:43:29.836Z,17.23
2023-02-09T07:46:04.173Z,17.08
2023-02-09T07:48:31.428Z,15.80
2023-02-09T07:50:58.175Z,17.33
2023-02-09T07:53:25.457Z,21.60
2023-02-09T07:55:52.105Z,17.52
2023-02-09T07:58:20.554Z,17.60
2023-02-09T08:00:49.154Z,17.35
2023-02-09T08:03:20.301Z,16.33
2023-02-09T08:06:02.991Z,16.27
2023-02-09T08:08:29.600Z,17.33
2023-02-09T08:10:58.239Z,16.63
2023-02-09T08:13:28.723Z,16.65
2023-02-09T08:16:01.160Z,15.93
2023-02-09T08:18:32.649Z,16.40
2023-02-09T08:20:59.249Z,17.83
2023-02-09T08:23:30.499Z,16.02
2023-02-09T08:28:38.284Z,16.50
2023-02-09T08:31:08.614Z,16.58
2023-02-09T08:33:35.177Z,16.60
2023-02-09T08:36:01.924Z,15.30
2023-02-09T08:38:28.617Z,16.73
2023-02-09T08:40:55.111Z,15.95
2023-02-09T08:43:21.730Z,16.75
2023-02-09T08:45:48.890Z,17.42
2023-02-09T08:48:15.620Z,15.75
2023-02-09T08:50:42.059Z,15.65
2023-02-09T08:53:08.601Z,15.55
2023-02-09T08:55:38.581Z,16.13
2023-02-09T08:58:07.658Z,14.70
2023-02-09T09:00:34.132Z,15.73
2023-02-09T09:03:04.653Z,16.20
2023-02-09T09:05:32.123Z,15.67
2023-02-09T09:07:58.725Z,14.75
2023-02-09T09:10:25.201Z,15.15
2023-02-09T09:12:52.085Z,14.13
2023-02-09T09:15:18.686Z,14.45
2023-02-09T09:17:45.383Z,14.90
2023-02-09T09:20:12.034Z,15.20
2023-02-09T09:22:38.577Z,15.15
2023-02-09T09:25:06.024Z,15.07
2023-02-09T09:27:36.044Z,13.65
2023-02-09T09:30:04.532Z,14.90
2023-02-09T09:32:31.314Z,14.73
2023-02-09T09:34:59.083Z,13.52
2023-02-09T09:37:26.509Z,13.88
2023-02-09T09:39:53.586Z,14.35
2023-02-09T09:42:50.579Z,13.88
2023-02-09T09:45:21.466Z,13.32
2023-02-09T09:47:48.390Z,13.80
2023-02-09T09:50:21.512Z,13.88
2023-02-09T09:52:56.827Z,12.80
2023-02-09T09:55:29.106Z,12.88
2023-02-09T09:57:59.639Z,14.05
2023-02-09T10:00:35.912Z,13.57
2023-02-09T10:03:03.114Z,13.80
2023-02-09T10:05:37.686Z,12.70
2023-02-09T10:08:12.063Z,12.98
2023-02-09T10:10:49.429Z,12.98
2023-02-09T10:13:23.908Z,11.57
2023-02-09T10:15:56.903Z,13.05
2023-02-09T10:18:26.784Z,12.52
2023-02-09T10:20:59.064Z,12.75
2023-02-09T10:23:36.423Z,12.90
2023-02-09T10:26:24.485Z,12.20
2023-02-09T10:28:57.436Z,12.73
2023-02-09T10:31:33.633Z,12.52
2023-02-09T10:34:15.264Z,11.85
2023-02-09T10:36:50.152Z,12.13
2023-02-09T10:39:31.540Z,11.75
2023-02-09T10:42:16.370Z,11.38
2023-02-09T10:44:48.545Z,12.38
2023-02-09T10:47:20.780Z,12.50
2023-02-09T10:50:05.606Z,11.77
2023-02-09T10:52:38.234Z,10.88
2023-02-09T10:55:37.171Z,11.70
2023-02-09T10:58:11.371Z,11.40
2023-02-09T11:01:04.392Z,11.27
2023-02-09T11:03:30.963Z,11.57
2023-02-09T11:06:18.157Z,12.18
2023-02-09T11:08:51.227Z,11.85
2023-02-09T11:11:28.034Z,12.10
2023-02-09T11:13:54.709Z,10.90
2023-02-09T11:16:44.600Z,10.93
2023-02-09T11:19:11.429Z,11.63
2023-02-09T11:21:55.156Z,10.73
2023-02-09T11:24:30.708Z,11.15
2023-02-09T11:27:03.511Z,10.93
2023-02-09T11:29:36.243Z,10.60
2023-02-09T11:32:11.924Z,11.20
2023-02-09T11:34:53.879Z,10.85
2023-02-09T11:37:41.526Z,10.30
2023-02-09T11:40:17.090Z,11.25
2023-02-09T11:42:54.402Z,11.05
2023-02-09T11:45:33.086Z,10.50
2023-02-09T11:48:13.859Z,10.32
2023-02-09T11:51:15.368Z,10.57
2023-02-09T11:53:50.593Z,9.73
2023-02-09T11:56:21.096Z,10.00
2023-02-09T11:59:25.455Z,9.85
2023-02-09T12:02:01.905Z,9.98
2023-02-09T12:04:39.875Z,9.52
2023-02-09T12:07:21.136Z,9.93
2023-02-09T12:10:00.429Z,9.48
2023-02-09T12:12:44.167Z,9.93
2023-02-09T12:15:22.802Z,9.63
2023-02-09T12:17:59.756Z,9.93
2023-02-09T12:20:31.374Z,11.90
2023-02-09T12:25:35.602Z,7.57
2023-02-09T12:28:13.560Z,10.10
2023-02-09T12:30:40.477Z,9.93
2023-02-09T12:33:22.156Z,10.50
2023-02-09T12:36:02.872Z,10.52
2023-02-09T12:38:54.436Z,11.02
2023-02-09T12:41:23.983Z,10.10
2023-02-09T12:44:04.430Z,10.85
2023-02-09T12:46:31.056Z,11.80
2023-02-09T12:49:12.688Z,10.65
2023-02-09T12:51:50.970Z,10.50
2023-02-09T12:54:29.628Z,12.57
2023-02-09T12:57:16.823Z,10.98
2023-02-09T12:59:56.251Z,10.95
2023-02-09T13:03:04.556Z,11.30
2023-02-09T13:05:39.742Z,11.85
2023-02-09T13:08:18.170Z,10.95
2023-02-09T13:10:48.754Z,10.85
2023-02-09T13:13:21.566Z,11.98
2023-02-09T13:15:50.829Z,11.02
2023-02-09T13:18:28.484Z,10.52
2023-02-09T13:21:32.486Z,10.38
2023-02-09T13:24:10.975Z,11.30
2023-02-09T13:26:49.022Z,10.93
2023-02-09T13:29:22.330Z,11.63
2023-02-09T13:31:54.788Z,12.00
2023-02-09T13:34:31.315Z,12.98
2023-02-09T13:37:22.963Z,11.60
2023-02-09T13:40:00.841Z,11.07
2023-02-09T13:42:30.716Z,11.10
2023-02-09T13:44:59.311Z,11.70
2023-02-09T13:47:27.500Z,10.48
2023-02-09T13:50:15.758Z,10.75
2023-02-09T13:52:42.821Z,12.63
2023-02-09T13:55:26.978Z,11.27
2023-02-09T13:58:01.282Z,11.48
2023-02-09T14:00:30.770Z,10.25
2023-02-09T14:03:00.859Z,11.52
2023-02-09T14:05:43.232Z,11.13
2023-02-09T14:08:13.383Z,12.15
2023-02-09T14:10:43.224Z,10.52
2023-02-09T14:13:32.891Z,10.85
2023-02-09T14:16:07.543Z,10.02
2023-02-09T14:18:45.168Z,9.30
2023-02-09T14:21:11.663Z,9.60
2023-02-09T14:23:39.244Z,10.70
2023-02-09T14:26:14.661Z,10.27
2023-02-09T14:28:45.310Z,10.15
2023-02-09T14:31:24.422Z,9.40
2023-02-09T14:33:54.507Z,9.05
2023-02-09T14:36:33.370Z,9.68
2023-02-09T14:39:17.568Z,9.00
2023-02-09T14:42:08.703Z,8.82
2023-02-09T14:44:52.691Z,6.30
2023-02-09T14:47:28.253Z,9.70
2023-02-09T14:49:56.169Z,9.77
2023-02-09T14:52:28.725Z,9.88
2023-02-09T14:54:57.658Z,9.23
2023-02-09T14:57:27.017Z,10.20
2023-02-09T14:59:56.069Z,9.68
2023-02-09T15:02:27.027Z,9.95
2023-02-09T15:04:56.557Z,9.60
2023-02-09T15:07:35.863Z,10.15
2023-02-09T15:10:08.366Z,10.07
2023-02-09T15:12:34.898Z,11.30
2023-02-09T15:15:02.053Z,12.70
2023-02-09T15:17:30.616Z,11.07
2023-02-09T15:19:58.506Z,10.13
2023-02-09T15:22:25.073Z,8.73
2023-02-09T15:24:54.348Z,9.30
2023-02-09T15:27:24.341Z,10.18
2023-02-09T15:29:51.313Z,9.32
2023-02-09T15:32:20.752Z,8.80
2023-02-09T15:34:47.620Z,10.15
2023-02-09T15:37:20.589Z,10.15
2023-02-09T15:39:55.514Z,9.68
2023-02-09T15:42:40.913Z,9.75
2023-02-09T15:45:41.358Z,9.48
2023-02-09T15:48:08.575Z,8.90
2023-02-09T15:50:38.801Z,9.85
2023-02-09T15:53:08.401Z,10.55
2023-02-09T15:55:36.081Z,9.68
2023-02-09T15:58:04.188Z,9.07
2023-02-09T16:00:31.457Z,10.55
2023-02-09T16:03:01.393Z,8.32
2023-02-09T16:05:29.475Z,11.02
2023-02-09T16:07:56.675Z,9.18
2023-02-09T16:10:25.839Z,9.13
2023-02-09T16:12:53.290Z,11.45
2023-02-09T16:15:22.913Z,10.15
2023-02-09T16:17:50.287Z,10.60
2023-02-09T16:20:18.673Z,21.80
2023-02-09T16:22:48.829Z,10.95
2023-02-09T16:25:21.672Z,9.73
2023-02-09T16:27:48.792Z,10.75
2023-02-09T16:30:27.504Z,10.80
2023-02-09T16:32:54.618Z,10.02
2023-02-09T16:35:23.436Z,9.98
2023-02-09T16:37:51.682Z,10.70
2023-02-09T16:40:28.336Z,10.68
2023-02-09T16:42:56.369Z,10.32
2023-02-09T16:45:23.642Z,11.18
2023-02-09T16:47:52.436Z,11.55
2023-02-09T16:50:34.344Z,11.45
2023-02-09T16:53:04.061Z,12.65
2023-02-09T16:55:32.792Z,11.35
2023-02-09T16:58:01.860Z,10.95
2023-02-09T17:00:32.079Z,11.23
2023-02-09T17:03:02.821Z,11.77
2023-02-09T17:05:32.449Z,12.23
2023-02-09T17:08:15.139Z,10.55
2023-02-09T17:10:41.647Z,11.75
2023-02-09T17:13:08.285Z,10.38
2023-02-09T17:15:42.331Z,11.30
2023-02-09T17:18:12.377Z,11.15
2023-02-09T17:20:43.424Z,11.25
2023-02-09T17:23:14.876Z,11.43
2023-02-09T17:28:07.777Z,11.10
2023-02-09T17:30:34.642Z,11.98
2023-02-09T17:33:03.516Z,10.35
2023-02-09T17:35:58.093Z,11.02
2023-02-09T17:38:36.821Z,10.55
2023-02-09T17:41:14.046Z,9.93
2023-02-09T17:43:40.524Z,10.48
2023-02-09T17:46:09.887Z,11.13
2023-02-09T17:48:36.579Z,11.63
2023-02-09T17:51:06.842Z,11.60
2023-02-09T17:53:34.992Z,11.52
2023-02-09T17:56:02.546Z,11.82
2023-02-09T17:58:29.311Z,12.27
2023-02-09T18:00:56.579Z,11.38
2023-02-09T18:03:25.870Z,11.48
2023-02-09T18:05:58.589Z,11.13
2023-02-09T18:08:27.259Z,11.05
2023-02-09T18:10:55.506Z,12.15
2023-02-09T18:13:23.604Z,11.95
2023-02-09T18:15:52.226Z,11.38
2023-02-09T18:18:18.704Z,12.18
2023-02-09T18:20:45.173Z,11.23
2023-02-09T18:23:15.355Z,11.95
2023-02-09T18:25:41.949Z,12.05
2023-02-09T18:28:08.953Z,11.63
2023-02-09T18:30:39.018Z,11.95
2023-02-09T18:33:07.124Z,11.52
2023-02-09T18:35:40.055Z,12.07
2023-02-09T18:38:09.783Z,12.05
2023-02-09T18:40:37.129Z,11.77
2023-02-09T18:43:05.551Z,11.32
2023-02-09T18:45:32.820Z,11.82
2023-02-09T18:47:59.993Z,12.13
2023-02-09T18:50:29.870Z,11.55
2023-02-09T18:52:59.030Z,10.70
2023-02-09T18:55:30.787Z,11.73
2023-02-09T18:57:59.452Z,12.25
2023-02-09T19:00:26.817Z,11.93
2023-02-09T19:02:57.479Z,12.75
2023-02-09T19:05:26.229Z,10.20
2023-02-09T19:07:53.033Z,12.10
2023-02-09T19:10:20.858Z,12.98
2023-02-09T19:12:47.905Z,13.32
2023-02-09T19:15:17.249Z,11.65
2023-02-09T19:17:44.946Z,12.18
2023-02-09T19:20:22.994Z,13.25
2023-02-09T19:22:52.460Z,12.55
2023-02-09T19:25:19.885Z,12.73
2023-02-09T19:27:46.513Z,13.32
2023-02-09T19:30:24.609Z,13.10
2023-02-09T19:32:52.633Z,12.40
2023-02-09T19:35:22.221Z,13.57
2023-02-09T19:37:53.324Z,13.48
2023-02-09T19:40:41.187Z,13.65
2023-02-09T19:43:07.944Z,12.70
2023-02-09T19:45:37.673Z,12.70
2023-02-09T19:48:08.802Z,13.48
2023-02-09T19:50:36.923Z,12.95
2023-02-09T19:53:05.588Z,12.90
2023-02-09T19:55:32.050Z,12.88
2023-02-09T19:57:59.268Z,13.35
2023-02-09T20:00:25.833Z,14.00
2023-02-09T20:02:52.351Z,13.68
2023-02-09T20:05:21.496Z,13.88
2023-02-09T20:07:49.004Z,13.15
2023-02-09T20:10:15.524Z,15.10
2023-02-09T20:12:42.047Z,14.95
2023-02-09T20:15:08.591Z,14.30
2023-02-09T20:17:35.102Z,14.52
2023-02-09T20:20:01.641Z,13.43
2023-02-09T20:22:28.102Z,13.73
2023-02-09T20:24:54.807Z,13.27
2023-02-09T20:27:21.331Z,14.77
2023-02-09T20:29:47.977Z,14.30
2023-02-09T20:32:14.436Z,13.88
2023-02-09T20:34:41.056Z,15.23
2023-02-09T20:37:07.683Z,15.07
2023-02-09T20:39:34.320Z,13.88
2023-02-09T20:42:19.302Z,15.20
2023-02-09T20:45:04.330Z,14.35
2023-02-09T20:47:30.879Z,14.07
2023-02-09T20:50:00.008Z,14.27
2023-02-09T20:52:28.404Z,14.23
2023-02-09T20:54:55.557Z,14.82
2023-02-09T20:57:24.686Z,16.02
2023-02-09T20:59:51.147Z,20.45
2023-02-09T21:02:17.760Z,14.27
2023-02-09T21:04:44.184Z,13.95
2023-02-09T21:07:10.945Z,14.93
2023-02-09T21:09:38.520Z,14.02
2023-02-09T21:12:04.981Z,14.63
2023-02-09T21:14:41.778Z,15.35
2023-02-09T21:17:09.088Z,14.02
2023-02-09T21:19:35.617Z,13.45
2023-02-09T21:22:02.299Z,14.85
2023-02-09T21:24:28.844Z,14.48
2023-02-09T21:26:55.297Z,15.40
2023-02-09T21:29:21.862Z,14.38
2023-02-09T21:31:48.465Z,13.80
2023-02-09T21:34:16.401Z,15.77
2023-02-09T21:36:43.252Z,13.93
2023-02-09T21:39:09.954Z,14.35
2023-02-09T21:41:55.006Z,15.00
2023-02-09T21:44:21.517Z,14.68
2023-02-09T21:46:49.085Z,15.68
2023-02-09T21:49:15.838Z,16.63
2023-02-09T21:51:42.588Z,16.45
2023-02-09T21:54:15.863Z,14.80
2023-02-09T21:56:43.225Z,15.73
2023-02-09T21:59:10.177Z,14.40
2023-02-09T22:01:36.781Z,15.52
2023-02-09T22:04:03.926Z,15.23
2023-02-09T22:06:30.794Z,14.60
2023-02-09T22:09:00.185Z,15.95
2023-02-09T22:11:26.746Z,15.15
2023-02-09T22:13:53.167Z,15.23
2023-02-09T22:16:22.425Z,14.68
2023-02-09T22:18:49.101Z,15.93
2023-02-09T22:21:16.104Z,16.60
2023-02-09T22:23:42.637Z,15.77
2023-02-09T22:26:10.264Z,15.10
2023-02-09T22:28:36.919Z,16.27
2023-02-09T22:31:08.544Z,15.02
2023-02-09T22:33:35.492Z,16.52
2023-02-09T22:36:11.531Z,14.90
2023-02-09T22:38:38.023Z,14.93
2023-02-09T22:41:21.509Z,14.88
2023-02-09T22:43:56.299Z,16.20
2023-02-09T22:46:29.471Z,14.90
2023-02-09T22:48:58.864Z,15.27
2023-02-09T22:51:28.485Z,15.13
2023-02-09T22:53:56.566Z,14.30
2023-02-09T22:56:23.571Z,15.57
2023-02-09T22:58:52.964Z,15.13
2023-02-09T23:01:19.847Z,15.60
2023-02-09T23:03:46.405Z,14.00
2023-02-09T23:06:16.796Z,14.68
2023-02-09T23:08:43.667Z,14.55
2023-02-09T23:11:13.939Z,13.82
2023-02-09T23:13:40.762Z,14.30
2023-02-09T23:16:11.300Z,15.25
2023-02-09T23:18:39.167Z,14.90
2023-02-09T23:21:08.262Z,13.38
2023-02-09T23:23:34.960Z,15.20
2023-02-09T23:26:01.557Z,13.80
2023-02-09T23:28:28.437Z,13.50
2023-02-09T23:30:55.033Z,13.63
2023-02-09T23:33:21.933Z,13.43
2023-02-09T23:35:48.643Z,13.38
2023-02-09T23:38:15.392Z,13.73
2023-02-09T23:40:41.883Z,14.15
2023-02-09T23:43:08.377Z,14.25
2023-02-09T23:45:34.824Z,14.07
2023-02-09T23:48:01.515Z,14.23
2023-02-09T23:50:27.995Z,15.55
2023-02-09T23:52:54.435Z,14.73
2023-02-09T23:55:21.156Z,14.88
2023-02-09T23:57:47.592Z,16.02
